Time;durP1;ratioP1;P1;durP2;ratioP2;P2;SDS_P1;SDS_P2;PMS_P1;PMS_P2;Temp;Humidity;BMP_temperature;BMP_pressure;BME280_temperature;BME280_humidity;BME280_pressure;Samples;Min_cycle;Max_cycle;Signal;HPM_P1;HPM_P2
2022/12/04 00:00:15;;;;;;;;;30.50;20.50;;;;;;;;5083001;28;11559;-83
2022/12/04 00:02:43;;;;;;;;;29.75;28.00;;;;;;;;5083634;28;11547;-83
2022/12/04 00:05:11;;;;;;;;;21.00;21.00;;;;;;;;5084701;28;11555;-84
2022/12/04 00:07:40;;;;;;;;;32.00;27.00;;;;;;;;5082631;28;11691;-82
2022/12/04 00:10:08;;;;;;;;;27.50;21.25;;;;;;;;5081728;28;11533;-82
2022/12/04 00:12:37;;;;;;;;;28.25;24.25;;;;;;;;5085502;28;11647;-82
2022/12/04 00:15:06;;;;;;;;;24.25;22.00;;;;;;;;5086088;28;11541;-82
2022/12/04 00:17:35;;;;;;;;;30.00;27.50;;;;;;;;5083817;28;11524;-82
2022/12/04 00:20:05;;;;;;;;;19.00;19.00;;;;;;;;5082155;28;11580;-83
2022/12/04 00:22:32;;;;;;;;;24.50;20.75;;;;;;;;5084735;28;11682;-82
2022/12/04 00:25:01;;;;;;;;;29.75;26.50;;;;;;;;5081491;28;12448;-83
2022/12/04 00:27:28;;;;;;;;;26.50;22.75;;;;;;;;5081235;28;11557;-83
2022/12/04 00:29:56;;;;;;;;;32.00;23.25;;;;;;;;5094628;28;11537;-82
2022/12/04 00:32:24;;;;;;;;;35.25;30.75;;;;;;;;5083407;28;11549;-82
2022/12/04 00:34:53;;;;;;;;;25.50;24.00;;;;;;;;5082059;28;11582;-83
2022/12/04 00:37:20;;;;;;;;;32.50;26.00;;;;;;;;5083159;28;11539;-83
2022/12/04 00:39:48;;;;;;;;;22.50;21.00;;;;;;;;5064126;28;11537;-84
2022/12/04 00:42:17;;;;;;;;;29.50;28.25;;;;;;;;5081777;28;11664;-83
2022/12/04 00:44:44;;;;;;;;;19.75;17.50;;;;;;;;5083098;28;11565;-83
2022/12/04 00:47:13;;;;;;;;;15.50;13.00;;;;;;;;5064432;28;11563;-84
2022/12/04 00:49:40;;;;;;;;;17.25;17.25;;;;;;;;5083525;28;11556;-84
2022/12/04 00:52:07;;;;;;;;;21.75;21.00;;;;;;;;5081201;28;11596;-83
2022/12/04 00:54:35;;;;;;;;;13.00;10.00;;;;;;;;5081078;28;11593;-82
2022/12/04 00:57:03;;;;;;;;;21.25;21.25;;;;;;;;5077827;28;11516;-81
2022/12/04 00:59:32;;;;;;;;;33.00;24.25;;;;;;;;5076151;28;11569;-82
2022/12/04 01:02:01;;;;;;;;;23.00;19.50;;;;;;;;5079449;28;11539;-82
2022/12/04 01:04:29;;;;;;;;;24.50;23.75;;;;;;;;5082514;28;11542;-82
2022/12/04 01:06:56;;;;;;;;;33.50;24.75;;;;;;;;5082387;28;11551;-82
2022/12/04 01:09:24;;;;;;;;;32.50;24.75;;;;;;;;5076084;28;11548;-82
2022/12/04 01:11:52;;;;;;;;;29.00;25.75;;;;;;;;5082467;28;11547;-82
2022/12/04 01:14:19;;;;;;;;;24.00;22.50;;;;;;;;5076079;28;11581;-82
2022/12/04 01:16:48;;;;;;;;;27.50;27.50;;;;;;;;5075349;28;12145;-82
2022/12/04 01:19:16;;;;;;;;;26.00;22.50;;;;;;;;5074648;28;11557;-82
2022/12/04 01:21:43;;;;;;;;;22.75;22.75;;;;;;;;5082457;28;11573;-82
2022/12/04 01:24:12;;;;;;;;;22.25;18.25;;;;;;;;5074423;28;11683;-82
2022/12/04 01:26:39;;;;;;;;;24.00;21.75;;;;;;;;5074088;28;11756;-82
2022/12/04 01:29:07;;;;;;;;;23.25;19.75;;;;;;;;5079705;28;11544;-83
2022/12/04 01:31:35;;;;;;;;;27.75;20.50;;;;;;;;5072201;28;11627;-83
2022/12/04 01:34:04;;;;;;;;;25.50;23.25;;;;;;;;5058162;28;11595;-83
2022/12/04 01:36:31;;;;;;;;;28.25;26.25;;;;;;;;5072585;28;12374;-83
2022/12/04 01:38:59;;;;;;;;;27.75;23.50;;;;;;;;5072869;28;11560;-84
2022/12/04 01:41:29;;;;;;;;;23.75;21.50;;;;;;;;5082542;28;11567;-84
2022/12/04 01:44:11;;;;;;;;;28.75;24.25;;;;;;;;5072296;28;11546;-83
2022/12/04 01:46:39;;;;;;;;;22.25;21.25;;;;;;;;5082453;28;11533;-83
2022/12/04 01:49:09;;;;;;;;;20.25;18.50;;;;;;;;5081555;28;11641;-82
2022/12/04 01:51:41;;;;;;;;;28.75;27.75;;;;;;;;5077089;28;11563;-82
2022/12/04 01:54:12;;;;;;;;;19.00;16.00;;;;;;;;5083722;28;11538;-83
2022/12/04 01:56:43;;;;;;;;;26.75;21.00;;;;;;;;5073042;28;11737;-83
2022/12/04 01:59:13;;;;;;;;;29.50;26.75;;;;;;;;5071382;28;11556;-83
2022/12/04 02:01:44;;;;;;;;;27.33;23.00;;;;;;;;5079762;28;11545;-82
2022/12/04 02:04:15;;;;;;;;;21.50;16.75;;;;;;;;5080326;28;11550;-83
2022/12/04 02:06:43;;;;;;;;;23.75;19.75;;;;;;;;5076743;28;11557;-83
2022/12/04 02:09:10;;;;;;;;;25.25;23.00;;;;;;;;5078124;28;11681;-82
2022/12/04 02:11:42;;;;;;;;;31.75;25.50;;;;;;;;5084217;28;11592;-83
2022/12/04 02:14:20;;;;;;;;;21.75;16.00;;;;;;;;5083303;28;11692;-83
2022/12/04 02:16:55;;;;;;;;;26.75;23.50;;;;;;;;5080074;28;11544;-82
2022/12/04 02:19:42;;;;;;;;;20.75;17.00;;;;;;;;5072627;28;11550;-83
2022/12/04 02:22:19;;;;;;;;;18.25;17.75;;;;;;;;5083935;28;11533;-83
2022/12/04 02:24:53;;;;;;;;;29.00;24.25;;;;;;;;5080686;28;11563;-83
2022/12/04 02:27:48;;;;;;;;;27.25;24.75;;;;;;;;5080949;28;11537;-83
2022/12/04 02:30:17;;;;;;;;;27.25;20.25;;;;;;;;5082134;28;11553;-83
2022/12/04 02:32:49;;;;;;;;;28.75;26.50;;;;;;;;5081933;28;11598;-83
2022/12/04 02:35:21;;;;;;;;;22.75;20.50;;;;;;;;5082320;28;11531;-83
2022/12/04 02:37:51;;;;;;;;;30.50;22.00;;;;;;;;5081817;28;11559;-82
2022/12/04 02:40:24;;;;;;;;;16.75;16.50;;;;;;;;5081313;28;11566;-83
2022/12/04 02:42:55;;;;;;;;;22.25;22.25;;;;;;;;5081331;28;11570;-83
2022/12/04 02:45:26;;;;;;;;;32.50;29.25;;;;;;;;5081557;28;11509;-83
2022/12/04 02:47:56;;;;;;;;;27.67;20.67;;;;;;;;5080387;28;11535;-82
2022/12/04 02:50:24;;;;;;;;;32.67;27.33;;;;;;;;5072246;28;11528;-81
2022/12/04 02:52:54;;;;;;;;;32.00;27.67;;;;;;;;5071448;28;11559;-82
2022/12/04 02:55:26;;;;;;;;;27.33;22.00;;;;;;;;5081264;28;11565;-82
2022/12/04 02:57:58;;;;;;;;;29.50;21.00;;;;;;;;5080902;28;11519;-82
2022/12/04 03:00:30;;;;;;;;;26.33;20.33;;;;;;;;5072511;28;11580;-82
2022/12/04 03:03:01;;;;;;;;;35.00;29.75;;;;;;;;5072221;28;11636;-82
2022/12/04 03:05:34;;;;;;;;;35.67;34.00;;;;;;;;5074438;28;11670;-82
2022/12/04 03:08:06;;;;;;;;;26.25;24.00;;;;;;;;5083746;28;11556;-82
2022/12/04 03:10:36;;;;;;;;;27.50;25.00;;;;;;;;5085266;28;11514;-83
2022/12/04 03:13:07;;;;;;;;;25.25;25.25;;;;;;;;5074332;28;11530;-85
2022/12/04 03:15:41;;;;;;;;;21.33;21.33;;;;;;;;5078947;28;12308;-84
2022/12/04 03:18:12;;;;;;;;;32.25;26.50;;;;;;;;5076052;28;11614;-84
2022/12/04 03:20:40;;;;;;;;;29.25;23.25;;;;;;;;5077391;28;11574;-84
2022/12/04 03:23:12;;;;;;;;;34.75;28.00;;;;;;;;5083879;28;11541;-84
2022/12/04 03:25:44;;;;;;;;;27.75;25.75;;;;;;;;5085515;28;11532;-83
2022/12/04 03:28:15;;;;;;;;;34.75;26.50;;;;;;;;5084421;28;11555;-83
2022/12/04 03:30:49;;;;;;;;;26.50;23.50;;;;;;;;5084700;28;11557;-83
2022/12/04 03:33:20;;;;;;;;;25.50;21.00;;;;;;;;5085714;28;11537;-83
2022/12/04 03:35:52;;;;;;;;;23.25;20.50;;;;;;;;5082799;28;11638;-82
2022/12/04 03:38:24;;;;;;;;;16.75;14.50;;;;;;;;5077211;28;11496;-82
2022/12/04 03:40:56;;;;;;;;;33.00;24.75;;;;;;;;5076520;28;11555;-82
2022/12/04 03:43:28;;;;;;;;;31.75;24.25;;;;;;;;5075978;28;11661;-82
2022/12/04 03:46:02;;;;;;;;;34.25;29.00;;;;;;;;5084662;28;11554;-82
2022/12/04 03:48:38;;;;;;;;;30.75;27.50;;;;;;;;5079695;28;11555;-83
2022/12/04 03:51:10;;;;;;;;;33.00;28.50;;;;;;;;5083175;28;11560;-83
2022/12/04 03:53:42;;;;;;;;;27.25;26.00;;;;;;;;5081877;28;11552;-82
2022/12/04 03:56:14;;;;;;;;;44.75;34.50;;;;;;;;5083014;28;12379;-82
2022/12/04 03:58:45;;;;;;;;;27.25;26.25;;;;;;;;5081914;28;12378;-82
2022/12/04 04:01:18;;;;;;;;;33.50;28.75;;;;;;;;5082895;28;11550;-83
2022/12/04 04:03:49;;;;;;;;;31.50;28.25;;;;;;;;5075044;28;11555;-82
2022/12/04 04:06:21;;;;;;;;;30.50;27.75;;;;;;;;5079328;28;11584;-82
2022/12/04 04:08:54;;;;;;;;;31.25;30.25;;;;;;;;5084338;28;11678;-83
2022/12/04 04:11:26;;;;;;;;;33.75;30.75;;;;;;;;5084236;28;12454;-83
2022/12/04 04:25:09;;;;;;;;;27.75;26.00;;;;;;;;5075313;28;11534;-83
2022/12/04 04:27:36;;;;;;;;;41.50;30.00;;;;;;;;5081952;28;11554;-82
2022/12/04 04:30:05;;;;;;;;;12.00;1.00;;;;;;;;5072711;28;11582;-83
2022/12/04 04:32:38;;;;;;;;;26.50;26.50;;;;;;;;5083990;28;11482;-83
2022/12/04 04:35:14;;;;;;;;;32.00;27.25;;;;;;;;5077956;28;11762;-84
2022/12/04 04:37:51;;;;;;;;;27.75;25.25;;;;;;;;5077289;28;11580;-83
2022/12/04 04:40:24;;;;;;;;;37.50;29.75;;;;;;;;5082399;28;11682;-83
2022/12/04 04:42:55;;;;;;;;;30.00;26.25;;;;;;;;5082177;28;11559;-83
2022/12/04 04:45:26;;;;;;;;;29.00;29.00;;;;;;;;5080871;28;11509;-84
2022/12/04 04:47:57;;;;;;;;;21.00;16.25;;;;;;;;5084606;28;11541;-83
2022/12/04 04:50:25;;;;;;;;;26.50;24.25;;;;;;;;5083394;28;11564;-83
2022/12/04 04:52:56;;;;;;;;;25.25;23.75;;;;;;;;5074555;28;11530;-82
2022/12/04 04:55:24;;;;;;;;;32.25;21.75;;;;;;;;5083079;28;11537;-82
2022/12/04 04:57:51;;;;;;;;;18.00;18.00;;;;;;;;5083404;28;11540;-83
2022/12/04 05:00:21;;;;;;;;;27.00;27.00;;;;;;;;5082634;28;11559;-84
2022/12/04 05:02:49;;;;;;;;;31.50;25.00;;;;;;;;5083346;28;11572;-83
2022/12/04 05:05:19;;;;;;;;;27.50;25.50;;;;;;;;5081878;28;11608;-82
2022/12/04 05:07:46;;;;;;;;;29.50;28.50;;;;;;;;5080872;28;11559;-83
2022/12/04 05:10:14;;;;;;;;;24.50;21.75;;;;;;;;5077969;28;11608;-84
2022/12/04 05:12:42;;;;;;;;;27.50;23.50;;;;;;;;5083048;28;11528;-82
2022/12/04 05:15:11;;;;;;;;;29.75;25.00;;;;;;;;5082484;28;11545;-83
2022/12/04 05:17:39;;;;;;;;;30.00;28.25;;;;;;;;5083104;28;11684;-83
2022/12/04 05:20:08;;;;;;;;;31.25;27.00;;;;;;;;5083219;28;11563;-83
2022/12/04 05:22:38;;;;;;;;;39.00;31.00;;;;;;;;5079402;28;11613;-83
2022/12/04 05:25:07;;;;;;;;;31.50;28.50;;;;;;;;5082881;28;11561;-83
2022/12/04 05:27:35;;;;;;;;;31.25;26.75;;;;;;;;5082366;28;11526;-84
2022/12/04 05:30:02;;;;;;;;;23.75;22.25;;;;;;;;5081732;28;11586;-82
2022/12/04 05:32:30;;;;;;;;;31.75;25.25;;;;;;;;5082314;28;11549;-83
2022/12/04 05:34:58;;;;;;;;;25.25;21.00;;;;;;;;5069951;28;11570;-82
2022/12/04 05:37:26;;;;;;;;;28.75;23.00;;;;;;;;5081596;28;11545;-82
2022/12/04 05:39:56;;;;;;;;;38.00;27.00;;;;;;;;5077407;28;11563;-83
2022/12/04 05:42:23;;;;;;;;;33.25;26.00;;;;;;;;5078461;28;11538;-83
2022/12/04 05:44:51;;;;;;;;;20.50;19.50;;;;;;;;5076396;28;11562;-83
2022/12/04 05:47:19;;;;;;;;;31.25;27.25;;;;;;;;5080067;28;11547;-82
2022/12/04 05:49:46;;;;;;;;;32.00;26.25;;;;;;;;5083461;28;12413;-82
2022/12/04 05:52:14;;;;;;;;;26.25;24.50;;;;;;;;5082240;28;11547;-83
2022/12/04 05:54:41;;;;;;;;;26.75;22.00;;;;;;;;5078022;28;11557;-82
2022/12/04 05:57:10;;;;;;;;;31.50;28.75;;;;;;;;5078257;28;12402;-83
2022/12/04 05:59:38;;;;;;;;;34.00;27.00;;;;;;;;5080625;28;12372;-83
2022/12/04 06:02:05;;;;;;;;;29.00;24.00;;;;;;;;5081667;28;11543;-83
2022/12/04 06:04:33;;;;;;;;;28.00;23.25;;;;;;;;5077892;28;11686;-83
2022/12/04 06:07:01;;;;;;;;;23.50;19.25;;;;;;;;5081925;28;11542;-82
2022/12/04 06:09:28;;;;;;;;;32.00;26.75;;;;;;;;5084167;28;11550;-82
2022/12/04 06:11:58;;;;;;;;;27.75;21.25;;;;;;;;5060001;28;11549;-83
2022/12/04 06:14:27;;;;;;;;;39.25;37.00;;;;;;;;5082202;28;11683;-82
2022/12/04 06:16:55;;;;;;;;;26.25;25.75;;;;;;;;5081695;28;11571;-82
2022/12/04 06:19:23;;;;;;;;;31.75;24.25;;;;;;;;5081055;28;11581;-84
2022/12/04 06:21:52;;;;;;;;;29.75;28.00;;;;;;;;5082840;28;11606;-82
2022/12/04 06:24:21;;;;;;;;;34.00;26.00;;;;;;;;5080699;28;11583;-83
2022/12/04 06:26:49;;;;;;;;;28.50;26.00;;;;;;;;5081745;28;11614;-83
2022/12/04 06:29:17;;;;;;;;;39.00;34.75;;;;;;;;5079491;28;11549;-82
2022/12/04 06:31:46;;;;;;;;;20.25;18.50;;;;;;;;5081261;28;11655;-82
2022/12/04 06:34:14;;;;;;;;;38.00;33.00;;;;;;;;5079135;28;11553;-84
2022/12/04 06:36:42;;;;;;;;;35.00;32.00;;;;;;;;5071094;28;11544;-85
2022/12/04 06:39:10;;;;;;;;;30.75;27.00;;;;;;;;5075115;28;11580;-88
2022/12/04 06:41:37;;;;;;;;;23.25;23.25;;;;;;;;5082019;28;11522;-87
2022/12/04 06:44:05;;;;;;;;;30.75;24.75;;;;;;;;5084407;28;11566;-85
2022/12/04 06:46:35;;;;;;;;;25.25;23.75;;;;;;;;5082841;28;11646;-86
2022/12/04 06:49:21;;;;;;;;;47.25;34.25;;;;;;;;5086970;28;11530;-88
2022/12/04 06:51:50;;;;;;;;;31.75;26.75;;;;;;;;5082010;28;11586;-87
2022/12/04 06:54:18;;;;;;;;;26.25;21.25;;;;;;;;5087023;28;11654;-83
2022/12/04 06:56:45;;;;;;;;;29.75;27.75;;;;;;;;5086453;28;11618;-81
2022/12/04 06:59:13;;;;;;;;;34.75;29.00;;;;;;;;5084508;28;11559;-86
2022/12/04 07:01:43;;;;;;;;;40.00;31.50;;;;;;;;5083100;28;11694;-85
2022/12/04 07:04:15;;;;;;;;;33.50;30.50;;;;;;;;5082884;28;11564;-88
2022/12/04 07:06:45;;;;;;;;;35.25;31.75;;;;;;;;5083374;28;11781;-86
2022/12/04 07:09:15;;;;;;;;;34.00;23.75;;;;;;;;5084040;28;11575;-87
2022/12/04 07:11:44;;;;;;;;;33.00;33.00;;;;;;;;5086812;28;11632;-84
2022/12/04 07:14:12;;;;;;;;;40.00;37.00;;;;;;;;5086684;28;11588;-85
2022/12/04 07:16:41;;;;;;;;;35.25;31.50;;;;;;;;5081691;28;11613;-74
2022/12/04 07:19:08;;;;;;;;;27.00;25.00;;;;;;;;5083523;28;11550;-76
2022/12/04 07:21:37;;;;;;;;;29.00;27.50;;;;;;;;5083851;28;11613;-72
2022/12/04 07:24:05;;;;;;;;;30.25;25.25;;;;;;;;5081624;28;11672;-74
2022/12/04 07:26:33;;;;;;;;;25.00;25.00;;;;;;;;5082087;28;11600;-79
2022/12/04 07:29:00;;;;;;;;;27.75;25.00;;;;;;;;5075515;28;11602;-77
2022/12/04 07:31:29;;;;;;;;;33.00;28.75;;;;;;;;5085345;28;11540;-77
2022/12/04 07:33:57;;;;;;;;;34.25;31.00;;;;;;;;5085129;28;11683;-79
2022/12/04 07:36:26;;;;;;;;;24.00;24.00;;;;;;;;5086266;28;11568;-82
2022/12/04 07:38:56;;;;;;;;;31.50;28.75;;;;;;;;5089266;28;11519;-80
2022/12/04 07:41:23;;;;;;;;;35.25;27.25;;;;;;;;5085236;28;11524;-82
2022/12/04 07:43:51;;;;;;;;;24.75;23.75;;;;;;;;5089892;28;11553;-77
2022/12/04 07:46:22;;;;;;;;;25.50;21.75;;;;;;;;5089300;28;11633;-80
2022/12/04 07:48:57;;;;;;;;;27.75;25.00;;;;;;;;5085375;28;11659;-76
2022/12/04 07:51:26;;;;;;;;;35.50;30.00;;;;;;;;5090149;28;11544;-79
2022/12/04 07:53:56;;;;;;;;;46.75;31.25;;;;;;;;5085183;28;11651;-78
2022/12/04 07:56:24;;;;;;;;;34.00;29.50;;;;;;;;5083432;28;11551;-78
2022/12/04 07:58:51;;;;;;;;;32.00;29.00;;;;;;;;5083612;28;11560;-80
2022/12/04 08:01:21;;;;;;;;;40.00;34.50;;;;;;;;5080567;28;11583;-78
2022/12/04 08:03:52;;;;;;;;;33.25;30.25;;;;;;;;5084829;28;11536;-78
2022/12/04 08:06:28;;;;;;;;;39.25;36.75;;;;;;;;5090112;28;11537;-81
2022/12/04 08:08:57;;;;;;;;;24.25;22.00;;;;;;;;5085959;28;11620;-79
2022/12/04 08:11:28;;;;;;;;;37.25;34.00;;;;;;;;5078494;28;11538;-80
2022/12/04 08:14:02;;;;;;;;;28.75;27.50;;;;;;;;5083506;28;11649;-79
2022/12/04 08:16:31;;;;;;;;;31.00;31.00;;;;;;;;5083661;28;11571;-80
2022/12/04 08:19:02;;;;;;;;;48.00;32.50;;;;;;;;5082869;28;11607;-80
2022/12/04 08:21:31;;;;;;;;;31.00;28.50;;;;;;;;5081689;28;11571;-81
2022/12/04 08:24:02;;;;;;;;;34.25;28.25;;;;;;;;5082838;28;11645;-81
2022/12/04 08:26:43;;;;;;;;;42.00;33.50;;;;;;;;5092256;27;11549;-80
2022/12/04 08:29:11;;;;;;;;;35.25;34.00;;;;;;;;5083065;28;12372;-80
2022/12/04 08:31:38;;;;;;;;;37.50;34.25;;;;;;;;5083157;28;11561;-80
2022/12/04 08:34:08;;;;;;;;;27.00;26.25;;;;;;;;5076213;28;11549;-80
2022/12/04 08:36:36;;;;;;;;;35.25;33.50;;;;;;;;5078403;28;11549;-79
2022/12/04 08:39:05;;;;;;;;;36.00;35.50;;;;;;;;5081811;28;11685;-79
2022/12/04 08:41:32;;;;;;;;;39.75;32.25;;;;;;;;5079326;28;11551;-79
2022/12/04 08:44:00;;;;;;;;;41.50;34.25;;;;;;;;5074489;28;11583;-79
2022/12/04 08:46:28;;;;;;;;;34.00;30.00;;;;;;;;5079575;28;11576;-79
2022/12/04 08:48:55;;;;;;;;;35.50;29.75;;;;;;;;5084531;28;11570;-80
2022/12/04 08:51:36;;;;;;;;;32.00;22.75;;;;;;;;5085439;28;11581;-79
2022/12/04 08:54:07;;;;;;;;;25.25;23.25;;;;;;;;5087851;28;11558;-80
2022/12/04 08:56:36;;;;;;;;;37.50;35.75;;;;;;;;5083161;28;11558;-80
2022/12/04 08:59:04;;;;;;;;;31.00;27.00;;;;;;;;5083573;28;12335;-79
2022/12/04 09:01:31;;;;;;;;;33.75;31.00;;;;;;;;5084367;28;11665;-79
2022/12/04 09:03:59;;;;;;;;;27.25;24.50;;;;;;;;5077446;28;12308;-79
2022/12/04 09:06:26;;;;;;;;;42.25;30.25;;;;;;;;5080281;28;12398;-80
2022/12/04 09:08:54;;;;;;;;;39.25;33.50;;;;;;;;5074754;28;11575;-80
2022/12/04 09:11:26;;;;;;;;;34.75;31.00;;;;;;;;5085710;28;11561;-80
2022/12/04 09:13:54;;;;;;;;;36.75;36.75;;;;;;;;5083577;28;11552;-80
2022/12/04 09:16:23;;;;;;;;;41.50;36.50;;;;;;;;5081940;28;11618;-80
2022/12/04 09:18:51;;;;;;;;;45.25;36.50;;;;;;;;5081301;28;11566;-80
2022/12/04 09:21:20;;;;;;;;;38.75;30.00;;;;;;;;5082885;28;12503;-80
2022/12/04 09:23:47;;;;;;;;;40.25;33.25;;;;;;;;5076467;28;11678;-80
2022/12/04 09:26:20;;;;;;;;;35.00;31.25;;;;;;;;5082702;28;11544;-81
2022/12/04 09:28:50;;;;;;;;;46.50;38.75;;;;;;;;5082176;28;11554;-81
2022/12/04 09:31:19;;;;;;;;;39.25;33.25;;;;;;;;5081732;28;11567;-84
2022/12/04 09:33:47;;;;;;;;;37.25;31.75;;;;;;;;5083118;28;11560;-83
2022/12/04 09:36:17;;;;;;;;;46.00;38.25;;;;;;;;5080952;28;11693;-84
2022/12/04 09:38:48;;;;;;;;;40.50;35.50;;;;;;;;5081629;28;11569;-83
2022/12/04 09:41:33;;;;;;;;;34.50;27.00;;;;;;;;5080447;28;11569;-77
2022/12/04 09:44:05;;;;;;;;;36.25;28.25;;;;;;;;5079038;28;12345;-78
2022/12/04 09:46:38;;;;;;;;;40.50;35.00;;;;;;;;5081486;28;12525;-78
2022/12/04 09:49:12;;;;;;;;;39.25;33.50;;;;;;;;5074610;28;11551;-78
2022/12/04 09:51:41;;;;;;;;;32.75;29.75;;;;;;;;5081372;28;11569;-78
2022/12/04 09:54:13;;;;;;;;;24.50;22.25;;;;;;;;5080508;28;11581;-76
2022/12/04 09:56:52;;;;;;;;;45.75;39.00;;;;;;;;5083034;28;11575;-75
2022/12/04 09:59:33;;;;;;;;;39.75;35.00;;;;;;;;5050692;28;11596;-75
2022/12/04 10:02:04;;;;;;;;;49.50;39.50;;;;;;;;5080227;28;11545;-74
2022/12/04 10:04:40;;;;;;;;;43.25;38.00;;;;;;;;5083469;28;11592;-75
2022/12/04 10:07:27;;;;;;;;;42.75;39.50;;;;;;;;5082404;28;11598;-80
2022/12/04 10:10:01;;;;;;;;;32.50;29.50;;;;;;;;5084859;28;11561;-76
2022/12/04 10:12:32;;;;;;;;;36.00;34.00;;;;;;;;5083558;28;11523;-75
2022/12/04 10:15:17;;;;;;;;;42.00;39.00;;;;;;;;5092619;28;11635;-76
2022/12/04 10:17:55;;;;;;;;;33.00;31.00;;;;;;;;5085775;28;11568;-75
2022/12/04 10:20:35;;;;;;;;;34.75;28.50;;;;;;;;5094911;28;11713;-76
2022/12/04 10:23:14;;;;;;;;;37.75;35.25;;;;;;;;5079368;28;11663;-78
2022/12/04 10:25:44;;;;;;;;;37.25;32.50;;;;;;;;5085453;28;11558;-78
2022/12/04 10:28:26;;;;;;;;;41.50;37.50;;;;;;;;5084175;28;11530;-81
2022/12/04 10:30:59;;;;;;;;;29.50;27.75;;;;;;;;5088341;28;11590;-75
2022/12/04 10:33:33;;;;;;;;;38.25;32.00;;;;;;;;5086595;28;11671;-78
2022/12/04 10:36:01;;;;;;;;;39.50;33.25;;;;;;;;5088580;28;11535;-78
2022/12/04 10:38:45;;;;;;;;;36.75;34.00;;;;;;;;5085037;28;12424;-79
2022/12/04 10:41:19;;;;;;;;;36.00;31.50;;;;;;;;5083183;28;11642;-78
2022/12/04 10:43:48;;;;;;;;;39.50;38.75;;;;;;;;5084776;28;11552;-76
2022/12/04 10:46:25;;;;;;;;;40.00;32.25;;;;;;;;5084775;28;11537;-77
2022/12/04 10:48:57;;;;;;;;;34.75;32.25;;;;;;;;5084650;28;11589;-77
2022/12/04 10:51:25;;;;;;;;;38.50;34.50;;;;;;;;5086046;28;11556;-80
2022/12/04 10:53:53;;;;;;;;;31.25;31.25;;;;;;;;5086210;28;11574;-79
2022/12/04 10:56:23;;;;;;;;;28.75;27.25;;;;;;;;5083497;28;12395;-76
2022/12/04 10:59:01;;;;;;;;;36.00;27.75;;;;;;;;5084683;28;11549;-75
2022/12/04 11:01:32;;;;;;;;;43.50;39.75;;;;;;;;5084794;28;11561;-74
2022/12/04 11:04:03;;;;;;;;;32.50;32.50;;;;;;;;5085665;28;11544;-76
2022/12/04 11:06:31;;;;;;;;;37.75;32.25;;;;;;;;5085773;28;12408;-78
2022/12/04 11:08:59;;;;;;;;;35.25;33.50;;;;;;;;5081114;28;12309;-76
2022/12/04 11:11:29;;;;;;;;;33.75;31.25;;;;;;;;5077748;28;11568;-79
2022/12/04 11:14:06;;;;;;;;;35.50;30.75;;;;;;;;5085941;28;11561;-80
2022/12/04 11:16:43;;;;;;;;;38.00;35.75;;;;;;;;5085982;28;11631;-77
2022/12/04 11:19:23;;;;;;;;;33.00;27.00;;;;;;;;5079123;28;12305;-79
2022/12/04 11:21:51;;;;;;;;;37.00;31.50;;;;;;;;5084631;28;11648;-78
2022/12/04 11:24:23;;;;;;;;;30.50;28.50;;;;;;;;5087636;28;11558;-81
2022/12/04 11:26:56;;;;;;;;;38.00;29.25;;;;;;;;5079829;28;11548;-76
2022/12/04 11:29:30;;;;;;;;;35.00;32.25;;;;;;;;5084514;28;11589;-77
2022/12/04 11:32:04;;;;;;;;;41.25;33.50;;;;;;;;5081174;28;12368;-74
2022/12/04 11:34:35;;;;;;;;;34.25;30.00;;;;;;;;5084712;28;11564;-78
2022/12/04 11:37:03;;;;;;;;;37.00;31.75;;;;;;;;5086623;28;11601;-82
2022/12/04 11:39:42;;;;;;;;;38.50;36.25;;;;;;;;5077832;28;11680;-74
2022/12/04 11:42:23;;;;;;;;;32.50;29.75;;;;;;;;5084636;28;11539;-74
2022/12/04 11:44:53;;;;;;;;;31.00;30.50;;;;;;;;5085197;28;11546;-74
2022/12/04 11:47:24;;;;;;;;;41.50;34.75;;;;;;;;5082057;28;11551;-74
2022/12/04 11:50:02;;;;;;;;;43.75;37.50;;;;;;;;5083533;28;11569;-74
2022/12/04 11:52:44;;;;;;;;;32.25;32.25;;;;;;;;5080906;28;11551;-74
2022/12/04 11:55:24;;;;;;;;;42.75;38.50;;;;;;;;5082626;28;11563;-73
2022/12/04 11:58:04;;;;;;;;;35.75;33.00;;;;;;;;5084878;28;11562;-74
2022/12/04 12:00:43;;;;;;;;;34.75;29.00;;;;;;;;5079933;28;11543;-74
2022/12/04 12:03:18;;;;;;;;;36.25;36.25;;;;;;;;5085085;28;11595;-74
2022/12/04 12:06:19;;;;;;;;;13.50;13.50;;;;;;;;5082589;28;11654;-74
2022/12/04 12:09:23;;;;;;;;;21.25;20.00;;;;;;;;5068262;28;11543;-73
2022/12/04 12:11:55;;;;;;;;;41.50;34.75;;;;;;;;5079135;28;11555;-74
2022/12/04 12:14:28;;;;;;;;;37.50;34.25;;;;;;;;5089236;28;11555;-73
2022/12/04 12:17:04;;;;;;;;;45.50;40.00;;;;;;;;5073988;28;11568;-74
2022/12/04 12:20:00;;;;;;;;;40.25;37.50;;;;;;;;5083251;28;11645;-74
2022/12/04 12:23:08;;;;;;;;;46.00;37.50;;;;;;;;5068762;28;11707;-75
2022/12/04 12:25:43;;;;;;;;;33.50;31.00;;;;;;;;5043314;28;11575;-73
2022/12/04 12:28:17;;;;;;;;;38.25;37.75;;;;;;;;5073318;28;11591;-73
2022/12/04 12:30:58;;;;;;;;;42.25;37.50;;;;;;;;5082741;28;11559;-73
2022/12/04 12:33:28;;;;;;;;;29.00;27.75;;;;;;;;5081890;28;11562;-73
2022/12/04 12:36:03;;;;;;;;;36.75;28.50;;;;;;;;5095104;28;11554;-73
2022/12/04 12:38:35;;;;;;;;;39.75;35.25;;;;;;;;5082821;28;11576;-73
2022/12/04 12:41:06;;;;;;;;;28.50;28.50;;;;;;;;5084710;28;11558;-74
2022/12/04 12:43:35;;;;;;;;;36.50;35.25;;;;;;;;5083450;28;11536;-74
2022/12/04 12:46:13;;;;;;;;;43.25;37.75;;;;;;;;5083109;28;11560;-75
2022/12/04 12:48:49;;;;;;;;;50.00;40.75;;;;;;;;5083282;28;11539;-73
2022/12/04 12:51:36;;;;;;;;;39.25;36.50;;;;;;;;5082762;28;11554;-74
2022/12/04 12:54:14;;;;;;;;;35.75;35.75;;;;;;;;5084206;28;11554;-73
2022/12/04 12:56:44;;;;;;;;;39.75;35.75;;;;;;;;5082690;28;11662;-75
2022/12/04 12:59:17;;;;;;;;;44.25;37.75;;;;;;;;5081706;28;11544;-75
2022/12/04 13:01:55;;;;;;;;;39.25;29.00;;;;;;;;5081461;28;11571;-74
2022/12/04 13:04:26;;;;;;;;;38.50;34.25;;;;;;;;5083771;28;11556;-74
2022/12/04 13:07:03;;;;;;;;;46.50;34.50;;;;;;;;5082273;28;11599;-74
2022/12/04 13:09:34;;;;;;;;;37.00;33.00;;;;;;;;5083079;28;12312;-74
2022/12/04 13:12:06;;;;;;;;;44.50;40.75;;;;;;;;5083538;28;12434;-74
2022/12/04 13:14:34;;;;;;;;;37.00;29.50;;;;;;;;5083947;28;11601;-74
2022/12/04 13:17:06;;;;;;;;;36.50;30.25;;;;;;;;5083620;28;12197;-74
2022/12/04 13:19:40;;;;;;;;;40.25;35.50;;;;;;;;5082678;28;11545;-74
2022/12/04 13:22:18;;;;;;;;;39.50;33.75;;;;;;;;5084041;28;11558;-74
2022/12/04 13:24:57;;;;;;;;;39.75;31.50;;;;;;;;5082807;28;11594;-74
2022/12/04 13:27:35;;;;;;;;;29.25;29.25;;;;;;;;5081687;28;11547;-74
2022/12/04 13:30:13;;;;;;;;;35.00;33.50;;;;;;;;5084048;28;11627;-74
2022/12/04 13:33:10;;;;;;;;;32.75;27.50;;;;;;;;5081416;28;11626;-73
2022/12/04 13:36:10;;;;;;;;;33.50;33.00;;;;;;;;5084211;28;11576;-73
2022/12/04 13:38:46;;;;;;;;;35.00;31.25;;;;;;;;5050320;28;11556;-75
2022/12/04 13:41:18;;;;;;;;;35.00;32.00;;;;;;;;5081931;28;11582;-73
2022/12/04 13:43:47;;;;;;;;;49.00;38.50;;;;;;;;5081764;28;11553;-74
2022/12/04 13:46:35;;;;;;;;;37.00;31.00;;;;;;;;5079511;28;11552;-74
2022/12/04 13:49:24;;;;;;;;;29.00;27.50;;;;;;;;5075213;28;11543;-74
2022/12/04 13:51:52;;;;;;;;;34.75;32.00;;;;;;;;5078547;28;11565;-74
2022/12/04 13:54:28;;;;;;;;;32.00;29.75;;;;;;;;5074254;28;11683;-72
2022/12/04 13:56:59;;;;;;;;;39.75;33.25;;;;;;;;5083624;28;11584;-73
2022/12/04 13:59:38;;;;;;;;;38.50;34.75;;;;;;;;5083148;28;11525;-73
2022/12/04 14:02:27;;;;;;;;;39.00;35.00;;;;;;;;5084136;28;11629;-74
2022/12/04 14:04:58;;;;;;;;;39.75;34.25;;;;;;;;5083908;28;12370;-74
2022/12/04 14:07:28;;;;;;;;;38.75;35.75;;;;;;;;5057287;28;11651;-74
2022/12/04 14:09:58;;;;;;;;;55.75;42.75;;;;;;;;5079659;28;11581;-74
2022/12/04 14:12:28;;;;;;;;;27.75;22.00;;;;;;;;5078410;28;11591;-74
2022/12/04 14:14:58;;;;;;;;;33.25;24.50;;;;;;;;5081294;28;11554;-74
2022/12/04 14:17:27;;;;;;;;;40.75;35.25;;;;;;;;5080613;28;11638;-75
2022/12/04 14:19:56;;;;;;;;;38.50;34.50;;;;;;;;5073173;28;11594;-74
2022/12/04 14:22:40;;;;;;;;;45.00;35.25;;;;;;;;5080264;28;11605;-75
2022/12/04 14:25:24;;;;;;;;;38.50;37.50;;;;;;;;5078159;28;11573;-74
2022/12/04 14:27:52;;;;;;;;;33.50;26.50;;;;;;;;5076821;28;11686;-74
2022/12/04 14:30:22;;;;;;;;;27.50;22.25;;;;;;;;5078556;28;11564;-73
2022/12/04 14:32:52;;;;;;;;;35.25;29.75;;;;;;;;5079215;28;11566;-75
2022/12/04 14:35:22;;;;;;;;;45.00;37.50;;;;;;;;5083678;28;11756;-75
2022/12/04 14:37:55;;;;;;;;;28.75;27.00;;;;;;;;5081754;28;11682;-72
2022/12/04 14:40:27;;;;;;;;;39.50;31.75;;;;;;;;5083192;28;11553;-73
2022/12/04 14:42:55;;;;;;;;;39.00;37.00;;;;;;;;5070277;28;12328;-72
2022/12/04 14:45:29;;;;;;;;;28.75;25.25;;;;;;;;5082605;28;11645;-73
2022/12/04 14:48:16;;;;;;;;;35.75;29.25;;;;;;;;5071614;28;11528;-72
2022/12/04 14:50:48;;;;;;;;;35.25;30.75;;;;;;;;5080740;28;12015;-74
2022/12/04 14:53:24;;;;;;;;;39.75;36.75;;;;;;;;5079723;28;11541;-73